Carson Valley, Nevada Weather observations

Data are for 10 minute period ending at time listed.
 Day   Time   Solar   Ave.   Ave.  Ave.  Vector  Max.   Baro.   Total    
  of    of     Rad.   Air    Rel.  Wind   Wind   Wind  Press.  Precip.   
Year   Day            Temp.  Hum.  Speed  Dir.   Gust                    
2016   (PST)  Kw/m2    F      %     mph   deg.    mph    mb.     in.     
-------------------------------------------------------------------------
 205    2:00   0.00   43.5    73    2.1   202     3.8   861.5    0.00 
 205    2:10   0.00   42.9    73    3.6   138     4.7   861.4    0.00 
 205    2:20   0.00   40.7    80    3.7   142     6.1   861.3    0.00 
 205    2:30   0.00   41.3    76    3.1   122     4.2   861.4    0.00 
 205    2:40   0.00   41.2    75    3.8   179     5.0   861.3    0.00 
 205    2:50   0.00   41.0    79    2.4   272     4.7   861.4    0.00 
 205    3:00   0.00   40.2    81    2.0    18     3.0   861.4    0.00 
 205    3:10   0.00   38.4    82    2.3    77     4.1   861.3    0.00 
 205    3:20   0.00   38.4    79    2.9    68     4.6   861.3    0.00 
 205    3:30   0.00   38.8    77    1.9    63     3.7   861.3    0.00 
 205    3:40   0.00   40.0    76    0.2    82     1.8   861.4    0.00 
 205    3:50   0.00   39.0    82    0.9   287     3.3   861.4    0.00 
 205    4:00   0.00   39.3    85    0.2   352     1.8   861.4    0.00 
 205    4:10   0.00   38.8    86    0.0     0     0.0   861.5    0.00 
 205    4:20   0.00   39.3    85    1.5   235     2.0   861.6    0.00 
 205    4:30   0.00   40.2    88    0.8   203     2.1   861.6    0.00 
 205    4:40   0.00   39.0    89    0.9   140     2.3   861.6    0.00 
 205    4:50   0.00   39.7    88    1.5   259     3.1   861.7    0.00 
 205    5:00   0.00   39.0    89    0.7   322     2.0   861.7    0.00 
 205    5:10   0.01   38.5    88    1.8    21     2.3   861.8    0.00 
 205    5:20   0.04   39.7    85    2.0    40     2.7   861.9    0.00 
 205    5:30   0.07   41.1    80    2.3    40     2.9   861.8    0.00 
 205    5:40   0.10   42.5    75    0.9    56     2.5   861.7    0.00 
 205    5:50   0.12   44.0    75    2.0   112     3.6   861.7    0.00 
 205    6:00   0.15   45.9    72    1.6   123     2.3   861.8    0.00 
 205    6:10   0.18   47.8    63    1.2   142     2.3   861.8    0.00 
 205    6:20   0.21   48.9    61    2.1   149     3.5   861.9    0.00 
 205    6:30   0.25   50.3    62    2.1   152     3.4   861.8    0.00 
 205    6:40   0.28   52.3    57    2.2   162     3.0   861.8    0.00 
 205    6:50   0.31   54.1    58    2.3   159     3.4   861.7    0.00 
 205    7:00   0.35   56.0    55    0.8   148     2.2   861.8    0.00 
 205    7:10   0.38   59.0    47    0.6   338     2.0   861.9    0.00 
 205    7:20   0.42   59.8    34    1.1   350     2.6   862.0    0.00 
 205    7:30   0.45   61.1    34    1.0     2     2.6   862.1    0.00 
 205    7:40   0.48   62.4    31    0.9   314     2.8   862.1    0.00 
 205    7:50   0.52   62.1    31    1.3   323     2.7   862.1    0.00 
 205    8:00   0.55   62.3    31    1.2   293     3.0   862.2    0.00 
 205    8:10   0.58   64.8    29    0.6    47     1.6   862.1    0.00 
 205    8:20   0.61   66.1    26    0.5   307     2.0   862.0    0.00 
 205    8:30   0.65   66.4    28    0.9   288     2.3   862.0    0.00 
 205    8:40   0.68   66.6    26    1.6   259     3.0   861.9    0.00 
 205    8:50   0.70   67.6    26    1.3   290     2.6   861.9    0.00 
 205    9:00   0.73   69.2    27    1.4   286     3.0   861.8    0.00 
 205    9:10   0.76   70.0    25    1.9   285     4.6   861.7    0.00 
 205    9:20   0.78   71.4    20    1.5   314     3.1   861.6    0.00 
 205    9:30   0.81   72.9    22    1.3   298     3.1   861.5    0.00 
 205    9:40   0.83   74.5    20    1.0   222     2.3   861.4    0.00 
 205    9:50   0.85   77.0    21    0.6   136     2.6   861.3    0.00 
 205   10:00   0.87   77.6    19    1.8   189     3.8   861.2    0.00 
 205   10:10   0.89   75.7    20    1.7   269     4.0   861.0    0.00 
 205   10:20   0.91   78.8    20    1.1    40     3.1   861.0    0.00 
 205   10:30   0.93   79.0    20    2.0    69     4.5   860.8    0.00 
 205   10:40   0.94   79.8    17    2.5    54     5.3   860.6    0.00 
 205   10:50   0.95   80.9    16    1.9    32     5.3   860.5    0.00 
 205   11:00   0.96   81.5    14    1.5   304     4.9   860.3    0.00 
 205   11:10   0.97   82.6    14    1.4   213     4.3   860.2    0.00 
 205   11:20   0.97   81.4    16    2.4   247     5.3   860.0    0.00 
 205   11:30   0.99   82.4    16    1.7   245     3.9   859.9    0.00 
 205   11:40   0.99   82.4    16    2.7   282     5.5   859.7    0.00 
 205   11:50   0.98   84.4    15    1.5   172     3.5   859.6    0.00 
 205   12:00   0.96   85.3    14    2.3   102     5.4   859.5    0.00 
 205   12:10   0.98   85.2    16    1.8   313     4.0   859.3    0.00 
 205   12:20   0.98   86.0    13    1.4   132     3.4   859.2    0.00 
 205   12:30   0.98   86.4    13    2.7    34     5.6   859.1    0.00 
 205   12:40   0.97   86.5    12    2.9    52     6.2   859.0    0.00 
 205   12:50   0.96   87.5    12    3.8    12     8.3   858.8    0.00 
 205   13:00   0.91   87.9    12    2.7     1     9.1   858.7    0.00 
 205   13:10   0.95   89.0    12    1.4    48     4.2   858.6    0.00 
 205   13:20   0.94   88.8    13    2.2   279     5.4   858.6    0.00 
 205   13:30   0.93   88.5    13    4.8    31     9.1   858.5    0.00 
 205   13:40   0.92   89.2    11    2.3    22     5.2   858.4    0.00 
 205   13:50   0.89   90.0    12    2.1    66     7.7   858.3    0.00 
 205   14:00   0.86   89.2    12    4.5    27     8.0   858.3    0.00 
 205   14:10   0.80   89.4    11    4.7   346     8.4   858.2    0.00 
 205   14:20   0.84   89.5    13    6.6   323     9.6   858.1    0.00 
 205   14:30   0.83   89.1    12    8.2   273    17.5   858.0    0.00 
 205   14:40   0.80   88.2    12    9.2   281    17.8   857.8    0.00 
 205   14:50   0.76   89.0    11    5.9   294    11.9   857.7    0.00 
 205   15:00   0.75   88.5    15    9.0   304    13.7   857.6    0.00 
 205   15:10   0.73   88.3    13    9.0   313    15.4   857.5    0.00 
 205   15:20   0.70   87.9    15   10.1   301    16.1   857.5    0.00 
 205   15:30   0.67   88.1    13    8.5   304    13.7   857.5    0.00 
 205   15:40   0.64   88.0    14    9.7   291    16.4   857.4    0.00 
 205   15:50   0.61   87.7    15    6.9   297    12.4   857.3    0.00 
 205   16:00   0.58   87.4    16    8.1   289    17.2   857.3    0.00 
 205   16:10   0.55   87.2    15    8.5   290    16.2   857.2    0.00 
 205   16:20   0.52   86.8    14    9.6   292    15.6   857.2    0.00 
 205   16:30   0.49   86.8    14    8.3   315    13.7   857.1    0.00 
 205   16:40   0.46   86.4    15    8.4   303    17.0   857.0    0.00 
 205   16:50   0.43   86.1    14    8.6   302    17.7   856.9    0.00 
 205   17:00   0.40   86.2    14    7.5   318    15.8   856.8    0.00 
 205   17:10   0.36   85.9    13    8.2   298    16.4   856.8    0.00 
 205   17:20   0.33   85.4    14    6.6   311    13.2   856.8    0.00 
 205   17:30   0.29   85.4    14    5.8   304    11.1   856.8    0.00 
 205   17:40   0.26   85.0    14    5.6   318    14.8   856.8    0.00 
 205   17:50   0.23   84.7    16    5.5   318     9.2   856.8    0.00 
 205   18:00   0.20   82.3    19    4.5   328     8.9   856.7    0.00 
 205   18:10   0.17   83.1    17    2.9   326     5.9   856.6    0.00 
 205   18:20   0.14   80.8    18    5.9   326    10.1   856.8    0.00 
 205   18:30   0.05   80.0    15    5.6   328    11.2   856.9    0.00 
 205   18:40   0.02   76.6    17    6.1   313    12.9   856.9    0.00 
 205   18:50   0.02   76.5    17    5.9   309    10.5   857.0    0.00 
 205   19:00   0.01   74.7    20    7.5   310    10.3   857.2    0.00 
 205   19:10   0.01   75.8    18    7.5   316    10.6   857.2    0.00 
 205   19:20   0.01   75.4    18    7.9   301    10.9   857.3    0.00 
 205   19:30   0.00   76.7    15    9.5   293    11.8   857.4    0.00 
 205   19:40   0.00   76.4    15    8.8   297    14.5   857.4    0.00 
 205   19:50   0.00   76.5    15    8.8   290    13.7   857.4    0.00 
 205   20:00   0.00   75.7    16    8.4   278    12.8   857.5    0.00 
 205   20:10   0.00   75.4    16    7.5   272    11.2   857.7    0.00 
 205   20:20   0.00   73.3    18    3.0   262     6.4   857.9    0.00 
 205   20:30   0.00   70.4    22    4.5   129     8.7   858.0    0.00 
 205   20:40   0.00   63.2    31    3.8   121     6.1   858.2    0.00 
 205   20:50   0.00   66.3    29    5.5    81     8.3   858.6    0.00 
 205   21:00   0.00   66.9    27    5.5   146     7.6   858.7    0.00 
 205   21:10   0.00   65.6    30    5.4   191     7.9   858.7    0.00 
 205   21:20   0.00   63.2    35    6.4   235     8.3   858.7    0.00 
 205   21:30   0.00   63.5    34    4.1   247     6.1   858.7    0.00 
 205   21:40   0.00   66.1    28    4.8   229     6.7   858.7    0.00 
 205   21:50   0.00   62.5    35    4.8   132     9.0   858.7    0.00 
 205   22:00   0.00   60.0    39    3.9    68     6.4   858.8    0.00 
 205   22:10   0.00   60.5    36    4.8    84     6.7   858.7    0.00 
 205   22:20   0.00   60.2    37    3.9    63     5.0   858.6    0.00 
 205   22:30   0.00   57.3    43    1.7   335     6.3   858.6    0.00 
 205   22:40   0.00   55.2    51    1.9   282     4.6   858.6    0.00 
 205   22:50   0.00   54.7    57    3.1   256     4.5   858.6    0.00 
 205   23:00   0.00   55.5    54    1.6   309     2.4   858.6    0.00 
 205   23:10   0.00   55.8    50    1.5   303     3.8   858.6    0.00 
 205   23:20   0.00   52.3    66    1.1   181     2.1   858.6    0.00 
 205   23:30   0.00   51.5    62    1.9    94     3.9   858.5    0.00 
 205   23:40   0.00   50.9    59    0.0     0     0.0   858.3    0.00 
 205   23:50   0.00   50.6    64    0.3   280     2.5   858.2    0.00 
 206    0:00   0.00   49.9    64    1.6    90     3.7   858.2    0.00 
 206    0:10   0.00   50.5    60    1.7    76     3.2   858.1    0.00 
 206    0:20   0.00   48.6    64    3.5    77     5.1   858.1    0.00 
 206    0:30   0.00   47.0    67    2.8    79     4.8   858.0    0.00 
 206    0:40   0.00   46.5    70    2.4     1     3.2   858.0    0.00 
 206    0:50   0.00   47.9    74    1.7   343     2.5   858.0    0.00 
 206    1:00   0.00   47.8    74    2.8   290     3.7   858.0    0.00 
 206    1:10   0.00   48.2    72    2.3   264     4.5   858.0    0.00 
 206    1:20   0.00   47.1    76    0.8   120     2.6   858.0    0.00 
 206    1:30   0.00   48.7    63    2.7   140     3.4   857.9    0.00 
 206    1:40   0.00   46.8    72    2.6   188     4.5   857.8    0.00 
 206    1:50   0.00   44.8    80    0.3    74     2.5   857.8    0.00 

Return to Carson Valley graphs page.


Western Regional Climate Center,wrcc@dri.edu